Time;durP1;ratioP1;P1;durP2;ratioP2;P2;SDS_P1;SDS_P2;PMS_P1;PMS_P2;Temp;Humidity;BMP_temperature;BMP_pressure;BME280_temperature;BME280_humidity;BME280_pressure;Samples;Min_cycle;Max_cycle;Signal;HPM_P1;HPM_P2
2023/01/20 00:00:29;;;;;;;35.20;17.67;;;-2.30;99.90;;;;;;5007382;28;20217;-77
2023/01/20 00:02:55;;;;;;;32.77;18.60;;;-2.30;99.90;;;;;;5007253;28;20603;-77
2023/01/20 00:05:21;;;;;;;31.67;17.27;;;-2.30;99.90;;;;;;5005956;28;20231;-77
2023/01/20 00:07:47;;;;;;;36.03;18.23;;;-2.20;99.90;;;;;;5006857;28;20203;-77
2023/01/20 00:10:12;;;;;;;32.90;17.47;;;-2.20;99.90;;;;;;5006263;28;20191;-77
2023/01/20 00:12:38;;;;;;;29.90;17.87;;;-2.20;1.00;;;;;;5006525;28;20278;-77
2023/01/20 00:15:05;;;;;;;33.40;19.37;;;-2.20;1.00;;;;;;5005740;28;20306;-77
2023/01/20 00:17:31;;;;;;;38.93;19.17;;;-3.80;99.90;;;;;;5005853;28;20241;-77
2023/01/20 00:19:56;;;;;;;36.43;21.27;;;-2.10;1.00;;;;;;5006788;28;20191;-78
2023/01/20 00:22:22;;;;;;;35.37;19.03;;;-2.10;99.90;;;;;;5010837;28;20184;-77
2023/01/20 00:24:47;;;;;;;32.97;18.87;;;-2.10;99.90;;;;;;5007674;28;20183;-78
2023/01/20 00:27:14;;;;;;;32.80;19.67;;;-2.20;99.90;;;;;;5010374;28;20200;-76
2023/01/20 00:29:43;;;;;;;34.97;18.87;;;-2.20;99.90;;;;;;5011159;28;20195;-78
2023/01/20 00:32:09;;;;;;;35.53;19.10;;;-2.30;99.90;;;;;;5008011;28;20199;-78
2023/01/20 00:34:35;;;;;;;29.77;16.97;;;-2.30;99.90;;;;;;5008702;28;20183;-76
2023/01/20 00:37:00;;;;;;;37.47;18.20;;;-2.40;99.90;;;;;;5023437;23;20218;-77
2023/01/20 00:39:26;;;;;;;32.67;17.53;;;-0.90;99.90;;;;;;5001812;28;20183;-77
2023/01/20 00:41:52;;;;;;;31.43;18.27;;;-2.30;99.90;;;;;;5020838;22;20184;-80
2023/01/20 00:44:17;;;;;;;28.13;17.03;;;-2.20;1.00;;;;;;5005516;28;20199;-79
2023/01/20 00:46:43;;;;;;;35.10;18.20;;;-2.20;99.90;;;;;;5012728;28;20215;-82
2023/01/20 00:49:09;;;;;;;30.77;17.37;;;-2.20;99.90;;;;;;5031739;28;20183;-83
2023/01/20 00:51:35;;;;;;;31.37;16.77;;;-2.20;99.90;;;;;;5017125;28;20192;-80
2023/01/20 00:54:00;;;;;;;39.53;18.87;;;-2.30;99.90;;;;;;5018137;28;20218;-81
2023/01/20 00:56:26;;;;;;;33.13;18.30;;;-2.40;99.90;;;;;;5018327;28;20211;-80
2023/01/20 00:58:53;;;;;;;33.93;22.53;;;-2.40;99.90;;;;;;5017988;28;20996;-83
2023/01/20 01:01:20;;;;;;;31.27;18.33;;;-2.40;99.90;;;;;;5013080;28;20176;-82
2023/01/20 01:03:45;;;;;;;34.77;18.87;;;-2.40;99.90;;;;;;5010215;28;20188;-79
2023/01/20 01:06:16;;;;;;;29.33;17.57;;;-2.40;99.90;;;;;;5010857;28;20230;-81
2023/01/20 01:08:43;;;;;;;30.07;16.63;;;-2.40;99.90;;;;;;5010776;28;20184;-80
2023/01/20 01:11:10;;;;;;;27.53;16.77;;;-2.40;99.90;;;;;;5025512;28;21325;-81
2023/01/20 01:13:37;;;;;;;28.90;16.97;;;-2.40;99.90;;;;;;5007266;28;20180;-82
2023/01/20 01:16:10;;;;;;;30.67;16.90;;;-2.50;99.90;;;;;;5007914;28;20203;-82
2023/01/20 01:18:36;;;;;;;29.70;17.30;;;-2.60;99.90;;;;;;5008670;28;20698;-81
2023/01/20 01:21:07;;;;;;;32.13;16.80;;;-2.60;99.90;;;;;;5010758;28;20207;-82
2023/01/20 01:23:32;;;;;;;29.87;16.93;;;-2.60;99.90;;;;;;5009435;28;20557;-81
2023/01/20 01:25:58;;;;;;;32.43;17.27;;;-2.60;99.90;;;;;;5009947;28;20199;-81
2023/01/20 01:28:24;;;;;;;25.03;15.83;;;-2.80;99.90;;;;;;5010191;28;20665;-82
2023/01/20 01:30:49;;;;;;;30.67;16.63;;;-2.70;99.90;;;;;;5009082;28;20183;-83
2023/01/20 01:33:15;;;;;;;31.40;16.83;;;-2.80;99.90;;;;;;5010224;28;20201;-82
2023/01/20 01:35:40;;;;;;;33.70;17.50;;;-2.80;99.90;;;;;;5007848;28;20207;-82
2023/01/20 01:38:06;;;;;;;32.27;16.40;;;-2.70;99.90;;;;;;5010528;28;20184;-80
2023/01/20 01:40:33;;;;;;;29.37;16.13;;;-2.80;99.90;;;;;;5008759;28;20191;-81
2023/01/20 01:42:58;;;;;;;27.07;15.83;;;-2.80;99.90;;;;;;5013688;28;20282;-79
2023/01/20 01:45:26;;;;;;;33.00;17.20;;;-2.70;1.00;;;;;;5016214;28;20235;-82
2023/01/20 01:47:54;;;;;;;34.27;16.17;;;-2.60;1.00;;;;;;5026043;28;20211;-82
2023/01/20 01:50:24;;;;;;;29.33;16.80;;;-2.60;99.90;;;;;;5013451;28;20198;-78
2023/01/20 01:52:53;;;;;;;31.47;16.77;;;-2.70;99.90;;;;;;5012478;28;20194;-82
2023/01/20 01:55:21;;;;;;;33.73;17.33;;;-2.60;99.90;;;;;;5012915;28;20203;-82
2023/01/20 01:57:48;;;;;;;30.43;16.43;;;-2.60;99.90;;;;;;5008141;28;20749;-83
2023/01/20 02:00:14;;;;;;;31.60;17.50;;;-2.60;99.90;;;;;;5009761;28;20207;-79
2023/01/20 02:02:43;;;;;;;33.93;17.60;;;-2.50;99.90;;;;;;5012500;28;20192;-78
2023/01/20 02:05:13;;;;;;;28.70;15.30;;;-2.50;99.90;;;;;;5028912;28;20282;-82
2023/01/20 02:07:39;;;;;;;29.37;16.10;;;-2.50;99.90;;;;;;5014372;28;20208;-81
2023/01/20 02:10:05;;;;;;;25.87;16.07;;;-2.50;99.90;;;;;;5014910;28;20575;-81
2023/01/20 02:12:31;;;;;;;33.23;17.23;;;-2.50;99.90;;;;;;5015586;28;20205;-79
2023/01/20 02:15:01;;;;;;;34.13;16.50;;;-2.50;99.90;;;;;;5014193;28;20278;-81
2023/01/20 02:17:38;;;;;;;26.57;16.83;;;-2.50;99.60;;;;;;5014852;28;20218;-82
2023/01/20 02:20:28;;;;;;;31.53;16.07;;;-2.60;50.00;;;;;;5009404;28;20191;-83
2023/01/20 02:23:13;;;;;;;28.50;15.80;;;-2.70;90.40;;;;;;5008004;28;20184;-79
2023/01/20 02:25:50;;;;;;;26.93;16.07;;;-2.70;99.90;;;;;;5010536;28;20207;-82
2023/01/20 02:28:31;;;;;;;29.93;14.70;;;-2.70;99.90;;;;;;5016038;28;20199;-82
2023/01/20 02:31:19;;;;;;;29.70;16.00;;;-2.80;99.90;;;;;;5016165;28;20190;-81
2023/01/20 02:34:00;;;;;;;25.53;14.97;;;-2.80;99.90;;;;;;5015579;28;20247;-81
2023/01/20 02:36:54;;;;;;;29.40;15.57;;;-2.90;99.90;;;;;;5030790;28;20227;-82
2023/01/20 02:39:27;;;;;;;27.13;14.77;;;-2.90;99.90;;;;;;5010941;28;20297;-82
2023/01/20 02:42:07;;;;;;;26.33;14.77;;;-2.90;99.90;;;;;;5012585;28;20183;-82
2023/01/20 02:45:20;;;;;;;24.47;14.73;;;-3.00;99.90;;;;;;5011898;28;20194;-81
2023/01/20 02:48:02;;;;;;;27.13;14.80;;;-3.00;99.90;;;;;;5013742;28;20314;-82
2023/01/20 02:50:47;;;;;;;25.63;15.50;;;-3.10;99.90;;;;;;5031923;28;20202;-83
2023/01/20 02:53:15;;;;;;;27.33;15.93;;;-3.00;99.90;;;;;;5028870;28;20651;-82
2023/01/20 02:55:45;;;;;;;25.03;13.50;;;-3.00;99.90;;;;;;5013238;28;20291;-82
2023/01/20 02:58:18;;;;;;;23.33;14.53;;;-3.00;99.90;;;;;;5013904;28;20180;-82
2023/01/20 03:00:50;;;;;;;27.30;16.43;;;-2.80;99.90;;;;;;5012974;28;20270;-82
2023/01/20 03:03:21;;;;;;;27.83;16.03;;;-2.70;99.90;;;;;;5012670;28;20204;-83
2023/01/20 03:05:58;;;;;;;26.27;14.40;;;-2.40;1.00;;;;;;5010864;28;20219;-83
2023/01/20 03:08:28;;;;;;;24.23;15.60;;;-2.10;1.00;;;;;;5016643;28;20210;-82
2023/01/20 03:11:04;;;;;;;26.87;15.23;;;-1.90;1.00;;;;;;5017555;28;20184;-80
2023/01/20 03:13:45;;;;;;;24.23;15.30;;;-1.70;99.90;;;;;;5017246;28;20174;-82
2023/01/20 03:16:17;;;;;;;26.43;16.60;;;-1.50;99.90;;;;;;5017858;28;20294;-79
2023/01/20 03:18:43;;;;;;;23.50;15.00;;;-1.50;42.50;;;;;;5017489;28;20184;-82
2023/01/20 03:21:09;;;;;;;23.17;14.77;;;-1.40;1.00;;;;;;5018526;28;20262;-82
2023/01/20 03:23:39;;;;;;;25.77;14.87;;;-1.40;1.00;;;;;;5018706;28;20756;-81
2023/01/20 03:26:10;;;;;;;23.93;15.20;;;-1.40;1.00;;;;;;5017690;28;20196;-81
2023/01/20 03:28:35;;;;;;;22.77;13.83;;;-1.50;1.00;;;;;;5017008;28;20322;-82
2023/01/20 03:31:11;;;;;;;22.43;13.90;;;-1.50;1.00;;;;;;5017343;28;20210;-80
2023/01/20 03:33:38;;;;;;;22.30;14.10;;;-1.50;1.00;;;;;;5017688;28;20330;-80
2023/01/20 03:36:04;;;;;;;23.07;14.20;;;-1.50;1.00;;;;;;5016047;28;20263;-81
2023/01/20 03:38:29;;;;;;;21.10;13.10;;;-1.40;1.00;;;;;;5015339;28;20272;-81
2023/01/20 03:41:21;;;;;;;22.10;14.20;;;-1.40;1.00;;;;;;5017371;28;20183;-81
2023/01/20 03:43:58;;;;;;;22.63;13.67;;;-1.50;1.00;;;;;;5014466;28;20289;-79
2023/01/20 03:47:05;;;;;;;19.93;13.93;;;-1.50;1.00;;;;;;5031085;28;20218;-81
2023/01/20 03:49:53;;;;;;;22.63;15.18;;;-1.70;1.00;;;;;;5007305;28;20765;-82
2023/01/20 03:52:49;;;;;;;21.63;13.53;;;-1.60;1.00;;;;;;5014341;28;20183;-81
2023/01/20 03:55:19;;;;;;;23.15;16.70;;;-1.50;1.00;;;;;;5027099;28;20407;-78
2023/01/20 03:57:53;;;;;;;20.43;14.13;;;-1.40;1.00;;;;;;5011282;28;20187;-81
2023/01/20 04:00:21;;;;;;;20.27;13.30;;;-1.30;1.00;;;;;;5027905;28;20191;-80
2023/01/20 04:02:49;;;;;;;17.83;12.80;;;-0.70;1.00;;;;;;5014496;28;20190;-79
2023/01/20 04:05:15;;;;;;;20.70;12.43;;;-1.20;1.00;;;;;;5030177;28;20301;-81
2023/01/20 04:07:44;;;;;;;21.07;13.17;;;0.10;1.00;;;;;;5011908;28;20216;-82
2023/01/20 04:10:13;;;;;;;22.10;11.80;;;-1.10;99.90;;;;;;5011591;28;20188;-82
2023/01/20 04:12:39;;;;;;;18.37;12.67;;;-1.10;99.90;;;;;;5011521;28;20194;-82
2023/01/20 04:15:06;;;;;;;24.27;12.77;;;-1.10;99.90;;;;;;5013331;28;20271;-81
2023/01/20 04:17:32;;;;;;;18.63;12.13;;;-1.00;99.90;;;;;;5014704;28;20218;-80
2023/01/20 04:20:03;;;;;;;18.50;12.17;;;-1.20;99.90;;;;;;5015860;28;20188;-82
2023/01/20 04:22:43;;;;;;;19.77;12.43;;;-1.30;99.90;;;;;;5013243;28;20183;-80
2023/01/20 04:25:13;;;;;;;18.07;11.83;;;-1.30;99.90;;;;;;5011852;28;20211;-80
2023/01/20 04:27:39;;;;;;;21.43;12.63;;;-1.40;99.90;;;;;;5013538;28;20222;-80
2023/01/20 04:30:05;;;;;;;19.40;11.60;;;-1.40;99.90;;;;;;5013975;28;20184;-82
2023/01/20 04:32:30;;;;;;;20.10;12.13;;;-1.50;99.90;;;;;;5013093;28;20211;-80
2023/01/20 04:34:56;;;;;;;22.40;13.27;;;-1.60;99.90;;;;;;5012644;28;20191;-81
2023/01/20 04:37:21;;;;;;;21.00;12.10;;;-1.50;99.90;;;;;;5013425;28;20195;-80
2023/01/20 04:39:47;;;;;;;21.90;12.37;;;0.00;99.90;;;;;;5013520;28;20187;-82
2023/01/20 04:42:12;;;;;;;20.67;12.30;;;-1.60;99.90;;;;;;5011489;28;20203;-82
2023/01/20 04:44:38;;;;;;;17.60;12.17;;;-1.70;99.90;;;;;;5011798;28;20237;-82
2023/01/20 04:47:04;;;;;;;18.67;12.03;;;-1.80;99.90;;;;;;5013873;28;20708;-80
2023/01/20 04:49:29;;;;;;;19.57;12.77;;;-1.90;99.90;;;;;;5013530;28;20186;-81
2023/01/20 04:51:55;;;;;;;22.87;12.57;;;-2.00;99.90;;;;;;5012194;28;20238;-82
2023/01/20 04:54:20;;;;;;;22.00;13.27;;;-2.10;99.90;;;;;;5013427;28;20187;-81
2023/01/20 04:56:49;;;;;;;21.23;13.33;;;-2.20;99.90;;;;;;5012349;28;20216;-81
2023/01/20 04:59:15;;;;;;;24.10;12.43;;;-2.30;1.00;;;;;;5012889;28;20692;-80
2023/01/20 05:01:40;;;;;;;21.87;13.50;;;-2.40;1.00;;;;;;5011623;28;20180;-81
2023/01/20 05:04:06;;;;;;;20.63;12.90;;;-2.40;1.00;;;;;;5011337;28;20619;-81
2023/01/20 05:06:31;;;;;;;19.73;13.17;;;-2.50;1.00;;;;;;5012377;28;20744;-80
2023/01/20 05:08:57;;;;;;;24.23;13.70;;;-2.60;1.00;;;;;;5014303;28;20668;-81
2023/01/20 05:11:23;;;;;;;22.20;13.63;;;-2.60;1.00;;;;;;5013460;28;20184;-81
2023/01/20 05:13:48;;;;;;;22.73;13.23;;;-2.60;1.00;;;;;;5012878;28;20185;-83
2023/01/20 05:16:14;;;;;;;21.57;13.63;;;-2.70;1.00;;;;;;5008539;28;20207;-80
2023/01/20 05:18:39;;;;;;;21.40;13.53;;;-2.70;1.00;;;;;;5023135;28;20527;-78
2023/01/20 05:21:07;;;;;;;22.23;12.87;;;-2.70;1.00;;;;;;5008295;28;20191;-80
2023/01/20 05:23:33;;;;;;;23.83;17.58;;;-2.60;1.00;;;;;;5010846;28;20407;-82
2023/01/20 05:25:58;;;;;;;23.07;15.03;;;-2.70;1.00;;;;;;5010925;28;20195;-80
2023/01/20 05:28:24;;;;;;;27.03;14.33;;;-2.60;1.00;;;;;;5013267;28;20222;-81
2023/01/20 05:30:50;;;;;;;21.90;13.07;;;-2.70;1.00;;;;;;5011376;28;20222;-80
2023/01/20 05:33:16;;;;;;;22.88;13.70;;;-2.80;1.00;;;;;;5010281;28;20407;-82
2023/01/20 05:35:41;;;;;;;22.77;13.77;;;-2.80;1.00;;;;;;5009061;28;20229;-81
2023/01/20 05:38:07;;;;;;;23.93;13.20;;;-2.90;1.00;;;;;;5013004;28;20194;-81
2023/01/20 05:40:33;;;;;;;21.70;14.33;;;-3.00;1.00;;;;;;5011923;28;20258;-82
2023/01/20 05:42:59;;;;;;;25.50;14.90;;;-3.10;1.00;;;;;;5009642;28;20240;-83
2023/01/20 05:45:25;;;;;;;22.47;14.00;;;-3.10;1.00;;;;;;5024780;28;20704;-82
2023/01/20 05:47:58;;;;;;;22.90;14.50;;;-3.10;1.00;;;;;;5009991;28;20305;-81
2023/01/20 05:50:26;;;;;;;26.17;15.33;;;-3.10;1.00;;;;;;5009134;28;20705;-83
2023/01/20 05:52:52;;;;;;;25.13;14.50;;;-3.20;1.00;;;;;;5025095;28;20191;-82
2023/01/20 05:55:18;;;;;;;24.80;14.57;;;-3.20;1.00;;;;;;5009570;28;20210;-82
2023/01/20 05:57:44;;;;;;;20.33;14.23;;;-3.30;1.00;;;;;;5012011;28;20251;-81
2023/01/20 06:00:11;;;;;;;24.30;14.30;;;-3.30;1.00;;;;;;5011400;28;20219;-81
2023/01/20 06:02:37;;;;;;;21.87;13.67;;;-3.30;1.00;;;;;;5009642;28;20197;-81
2023/01/20 06:05:02;;;;;;;24.37;14.70;;;-3.40;1.00;;;;;;5008366;28;20195;-82
2023/01/20 06:07:29;;;;;;;29.87;15.73;;;-3.40;1.00;;;;;;5009743;28;20253;-82
2023/01/20 06:09:55;;;;;;;24.70;14.33;;;-3.40;1.00;;;;;;5010015;28;20179;-81
2023/01/20 06:12:21;;;;;;;21.90;13.60;;;-3.40;1.00;;;;;;5010326;28;20209;-79
2023/01/20 06:14:47;;;;;;;21.60;14.20;;;-3.50;1.00;;;;;;5011257;28;20253;-80
2023/01/20 06:17:12;;;;;;;24.97;14.00;;;-3.50;1.00;;;;;;5010157;28;20211;-81
2023/01/20 06:19:38;;;;;;;26.77;19.45;;;-3.50;1.00;;;;;;5009151;28;20443;-81
2023/01/20 06:22:03;;;;;;;22.73;15.70;;;-3.50;1.00;;;;;;5013653;28;20929;-80
2023/01/20 06:24:29;;;;;;;24.03;15.27;;;-3.50;1.00;;;;;;5014534;28;20506;-83
2023/01/20 06:26:54;;;;;;;21.00;14.53;;;-3.50;1.00;;;;;;5014707;28;20211;-82
2023/01/20 06:29:20;;;;;;;22.67;13.47;;;-3.50;1.00;;;;;;5015075;28;20183;-83
2023/01/20 06:31:46;;;;;;;22.63;14.30;;;-3.50;1.00;;;;;;5014485;28;20190;-83
2023/01/20 06:34:12;;;;;;;21.97;14.47;;;-3.60;1.00;;;;;;5030585;28;20183;-83
2023/01/20 06:36:38;;;;;;;21.57;13.57;;;-3.60;1.00;;;;;;5014037;28;20204;-83
2023/01/20 06:39:04;;;;;;;26.55;18.88;;;-3.70;1.00;;;;;;5013988;28;20427;-81
2023/01/20 06:41:30;;;;;;;21.87;14.90;;;-3.80;1.00;;;;;;5013626;28;20261;-81
2023/01/20 06:43:55;;;;;;;26.53;15.17;;;-3.80;1.00;;;;;;5014149;28;20750;-80
2023/01/20 06:46:21;;;;;;;22.73;15.27;;;-3.80;1.00;;;;;;5012967;28;20227;-82
2023/01/20 06:48:47;;;;;;;24.93;15.30;;;-3.80;1.00;;;;;;5014135;28;20183;-82
2023/01/20 06:51:14;;;;;;;29.00;20.38;;;;;;;;;;5014200;28;20434;-82
2023/01/20 06:53:40;;;;;;;27.80;17.90;;;;;;;;;;5013262;28;20179;-79
2023/01/20 06:56:06;;;;;;;35.53;20.60;;;;;;;;;;5013452;28;20211;-82
2023/01/20 06:58:33;;;;;;;49.50;25.30;;;;;;;;;;5014615;28;20180;-82
2023/01/20 07:01:04;;;;;;;47.90;26.00;;;;;;;;;;5014356;28;20183;-81
2023/01/20 07:03:30;;;;;;;36.77;21.77;;;;;;;;;;5014103;28;20184;-81
2023/01/20 07:05:58;;;;;;;89.87;42.30;;;;;;;;;;5009694;28;20214;-83
2023/01/20 07:08:24;;;;;;;90.83;44.10;;;;;;;;;;5009432;28;20204;-83
2023/01/20 07:10:50;;;;;;;76.40;38.70;;;;;;;;;;5010645;28;20194;-80
2023/01/20 07:13:16;;;;;;;31.20;18.47;;;;;;;;;;5012416;28;20551;-79
2023/01/20 07:15:42;;;;;;;22.20;14.00;;;;;;;;;;5023799;28;20215;-81
2023/01/20 07:18:08;;;;;;;26.07;16.70;;;;;;;;;;5025337;28;20195;-82
2023/01/20 07:20:34;;;;;;;26.70;15.50;;;;;;;;;;5008801;28;20195;-80
2023/01/20 07:23:00;;;;;;;27.60;14.77;;;;;;;;;;5009780;28;21062;-82
2023/01/20 07:25:26;;;;;;;27.63;15.37;;;;;;;;;;5008804;28;20584;-81
2023/01/20 07:27:52;;;;;;;25.47;16.67;;;;;;;;;;5009644;28;20208;-83
2023/01/20 07:30:18;;;;;;;33.27;20.40;;;;;;;;;;5011570;28;20196;-80
2023/01/20 07:32:44;;;;;;;29.17;16.83;;;;;;;;;;5023700;28;20936;-80
2023/01/20 07:35:10;;;;;;;26.23;15.17;;;;;;;;;;5008265;28;20211;-81
2023/01/20 07:37:36;;;;;;;28.60;14.97;;;;;;;;;;5008373;28;20204;-81
2023/01/20 07:40:03;;;;;;;27.73;15.20;;;;;;;;;;5008651;28;20310;-82
2023/01/20 07:42:29;;;;;;;24.47;15.13;;;;;;;;;;4992445;28;20195;-80
2023/01/20 07:44:55;;;;;;;26.63;14.70;;;;;;;;;;5008842;28;20190;-80
2023/01/20 07:47:21;;;;;;;25.10;15.50;;;;;;;;;;5008951;28;20215;-81
2023/01/20 07:49:46;;;;;;;26.30;16.20;;;;;;;;;;5009478;28;20194;-82
2023/01/20 07:52:12;;;;;;;22.93;14.57;;;;;;;;;;5011768;28;20195;-83
2023/01/20 07:54:38;;;;;;;25.43;15.43;;;;;;;;;;5013868;28;20227;-83
2023/01/20 07:57:04;;;;;;;28.80;17.90;;;;;;;;;;5011736;28;20242;-83
2023/01/20 07:59:30;;;;;;;24.40;15.97;;;;;;;;;;5015081;28;20191;-81
2023/01/20 08:01:56;;;;;;;42.43;23.47;;;;;;;;;;5013277;28;20247;-82
2023/01/20 08:04:22;;;;;;;32.50;19.67;;;;;;;;;;5013604;28;20191;-83
2023/01/20 08:06:48;;;;;;;34.77;20.43;;;;;;;;;;5015352;28;20245;-80
2023/01/20 08:09:15;;;;;;;63.23;34.50;;;;;;;;;;5014790;28;21083;-80
2023/01/20 08:11:41;;;;;;;35.83;20.80;;;;;;;;;;5015064;28;20191;-83
2023/01/20 08:14:07;;;;;;;48.63;27.70;;;;;;;;;;5014432;28;21074;-82
2023/01/20 08:16:33;;;;;;;185.13;102.73;;;;;;;;;;5011522;28;20297;-83
2023/01/20 08:18:58;;;;;;;44.53;26.33;;;;;;;;;;5026299;28;20649;-83
2023/01/20 08:21:26;;;;;;;27.10;16.63;;;;;;;;;;5010834;28;20195;-83
2023/01/20 08:23:55;;;;;;;34.00;20.20;;;;;;;;;;5009189;28;20195;-82
2023/01/20 08:26:23;;;;;;;40.40;25.07;;;;;;;;;;5008991;28;20207;-82
2023/01/20 08:28:49;;;;;;;34.53;22.00;;;;;;;;;;5006230;28;20282;-82
2023/01/20 08:31:16;;;;;;;51.30;41.07;;;;;;;;;;5004011;28;20214;-83
2023/01/20 08:33:43;;;;;;;43.93;39.23;;;;;;;;;;5003603;28;20258;-83
2023/01/20 08:36:10;;;;;;;33.57;27.17;;;;;;;;;;5004341;28;20222;-83
2023/01/20 08:38:37;;;;;;;29.07;19.47;;;;;;;;;;5005535;28;20219;-82
2023/01/20 08:41:14;;;;;;;25.90;15.70;;;;;;;;;;5005984;28;20184;-81
2023/01/20 08:43:40;;;;;;;37.83;25.93;;;;;;;;;;5005486;28;20207;-80
2023/01/20 08:46:07;;;;;;;26.13;18.50;;;;;;;;;;5006763;28;20215;-82
2023/01/20 08:48:34;;;;;;;32.23;21.50;;;;;;;;;;5005775;28;20250;-80
2023/01/20 08:51:02;;;;;;;101.73;47.73;;;;;;;;;;5008903;28;20217;-80
2023/01/20 08:53:29;;;;;;;42.10;25.07;;;;;;;;;;5023844;28;20194;-79
2023/01/20 08:55:58;;;;;;;37.67;23.37;;;;;;;;;;5010476;28;20205;-80
2023/01/20 08:58:25;;;;;;;29.07;19.33;;;;;;;;;;5007571;28;20191;-81
2023/01/20 09:00:51;;;;;;;27.93;18.23;;;;;;;;;;5010295;28;20193;-80
2023/01/20 09:03:17;;;;;;;26.43;17.47;;;;;;;;;;5009117;28;20210;-81
2023/01/20 09:05:43;;;;;;;26.03;16.90;;;;;;;;;;5025266;28;20207;-82
2023/01/20 09:08:09;;;;;;;26.93;18.87;;;;;;;;;;5007723;28;20219;-81
2023/01/20 09:10:35;;;;;;;32.80;20.43;;;;;;;;;;5008831;28;20194;-80
2023/01/20 09:13:04;;;;;;;38.20;21.37;;;;;;;;;;5010898;28;20187;-82
2023/01/20 09:15:30;;;;;;;41.07;22.97;;;;;;;;;;5008078;28;20336;-79
2023/01/20 09:17:57;;;;;;;34.57;22.60;;;;;;;;;;5008856;28;20590;-81
2023/01/20 09:20:24;;;;;;;31.17;19.90;;;;;;;;;;5006619;28;20621;-83
2023/01/20 09:22:50;;;;;;;31.27;19.53;;;;;;;;;;5009764;28;20187;-82
2023/01/20 09:25:16;;;;;;;29.33;19.43;;;;;;;;;;5011240;28;20222;-78
2023/01/20 09:27:42;;;;;;;31.03;20.00;;;;;;;;;;5010265;28;20279;-81
2023/01/20 09:30:08;;;;;;;23.30;16.63;;;;;;;;;;5026425;28;20282;-79
2023/01/20 09:32:34;;;;;;;35.23;19.50;;;;;;;;;;5012561;28;20192;-81
2023/01/20 09:35:00;;;;;;;27.53;17.90;;;;;;;;;;5013994;28;20187;-80
2023/01/20 09:46:34;;;;;;;28.93;18.40;;;;;;;;;;5018996;28;20218;-81
2023/01/20 09:55:00;;;;;;;27.33;17.53;;;;;;;;;;5006607;28;20858;-82
2023/01/20 09:57:29;;;;;;;25.77;17.87;;;-1.10;1.00;;;;;;5005924;28;20188;-81
2023/01/20 10:00:04;;;;;;;28.13;17.40;;;-1.00;1.00;;;;;;5005946;28;20215;-83
2023/01/20 10:02:34;;;;;;;26.97;17.27;;;-0.90;1.00;;;;;;5005463;28;20183;-81
2023/01/20 10:05:14;;;;;;;27.60;17.37;;;-0.90;1.00;;;;;;5021059;28;20262;-81
2023/01/20 10:07:54;;;;;;;24.90;16.87;;;-0.70;1.00;;;;;;5004871;28;20970;-78
2023/01/20 10:10:23;;;;;;;26.00;16.23;;;-0.60;1.00;;;;;;5005895;28;20176;-80
2023/01/20 10:12:52;;;;;;;26.37;16.33;;;-0.60;99.90;;;;;;5006635;28;20187;-78
2023/01/20 10:15:25;;;;;;;27.83;18.20;;;-0.60;99.90;;;;;;5020258;28;20207;-81
2023/01/20 10:17:56;;;;;;;23.33;15.43;;;;;;;;;;5007353;28;20184;-81
2023/01/20 10:20:44;;;;;;;25.03;16.43;;;-0.20;99.90;;;;;;5005763;28;20183;-83
2023/01/20 10:23:20;;;;;;;25.53;16.70;;;-0.20;99.90;;;;;;5007691;28;20179;-83
2023/01/20 10:26:07;;;;;;;24.53;16.40;;;0.00;99.90;;;;;;5006501;28;20203;-80
2023/01/20 10:28:40;;;;;;;23.80;15.83;;;0.10;99.90;;;;;;5007096;28;20268;-81
2023/01/20 10:31:06;;;;;;;20.37;13.00;;;0.20;99.90;;;;;;5006032;28;20187;-78
2023/01/20 10:33:42;;;;;;;18.67;13.00;;;0.30;99.90;;;;;;5007678;28;20191;-81
2023/01/20 10:36:24;;;;;;;18.00;11.60;;;0.50;99.90;;;;;;5007353;28;20241;-82
2023/01/20 10:38:56;;;;;;;19.23;12.67;;;0.60;95.40;;;;;;5006502;28;20712;-81
2023/01/20 10:41:30;;;;;;;18.50;14.53;;;0.60;99.90;;;;;;5022862;28;20661;-79
2023/01/20 10:43:58;;;;;;;20.63;13.40;;;0.70;99.90;;;;;;5021821;28;20195;-81
2023/01/20 10:46:59;;;;;;;17.67;12.57;;;0.80;93.00;;;;;;5008603;28;20243;-82
2023/01/20 10:49:28;;;;;;;16.37;11.90;;;0.80;90.20;;;;;;5007325;28;20617;-82
2023/01/20 10:52:19;;;;;;;18.93;12.53;;;0.90;95.70;;;;;;5008377;28;20180;-79
2023/01/20 10:55:33;;;;;;;22.40;14.83;;;1.10;93.20;;;;;;4998355;28;20199;-81
2023/01/20 10:58:18;;;;;;;18.67;12.50;;;1.00;88.80;;;;;;4994465;28;20579;-81
2023/01/20 11:00:44;;;;;;;19.67;12.73;;;1.00;92.40;;;;;;5008729;28;20676;-82
2023/01/20 11:03:14;;;;;;;20.27;13.53;;;1.10;88.40;;;;;;5008600;28;20179;-83
2023/01/20 11:05:41;;;;;;;19.57;12.83;;;1.10;94.00;;;;;;5022603;28;20199;-82
2023/01/20 11:08:15;;;;;;;20.97;13.27;;;1.20;96.60;;;;;;5006408;28;20310;-78
2023/01/20 11:10:40;;;;;;;18.53;12.60;;;1.20;99.90;;;;;;5024664;28;20184;-79
2023/01/20 11:13:09;;;;;;;15.10;11.73;;;1.20;85.50;;;;;;5011028;28;20238;-80
2023/01/20 11:15:45;;;;;;;18.90;11.60;;;1.30;61.20;;;;;;5009290;28;20207;-83
2023/01/20 11:18:13;;;;;;;15.77;11.17;;;1.30;47.60;;;;;;5025374;28;20187;-84
2023/01/20 11:20:47;;;;;;;17.37;11.10;;;1.40;20.10;;;;;;5007888;28;20701;-78
2023/01/20 11:23:46;;;;;;;20.00;12.80;;;1.40;1.00;;;;;;5011974;28;20180;-81
2023/01/20 11:26:19;;;;;;;15.20;9.93;;;1.40;13.40;;;;;;5008625;28;20685;-81
2023/01/20 11:28:53;;;;;;;17.60;10.17;;;1.40;11.50;;;;;;5026866;28;20215;-79
2023/01/20 11:31:20;;;;;;;14.20;9.53;;;1.40;11.10;;;;;;5008761;28;20270;-80
2023/01/20 11:33:58;;;;;;;14.67;10.40;;;1.40;2.90;;;;;;5010273;28;20199;-80
2023/01/20 11:36:24;;;;;;;13.00;10.00;;;1.40;1.00;;;;;;5009918;28;20203;-83
2023/01/20 11:38:51;;;;;;;13.07;9.63;;;1.50;1.00;;;;;;5011282;28;20191;-80
2023/01/20 11:41:22;;;;;;;12.00;8.97;;;1.50;4.00;;;;;;5009838;28;21462;-79
2023/01/20 11:43:49;;;;;;;14.63;9.30;;;1.50;4.20;;;;;;5009885;28;20564;-80
2023/01/20 11:46:31;;;;;;;12.13;9.87;;;1.50;2.00;;;;;;5007558;28;20242;-81
2023/01/20 11:49:18;;;;;;;13.20;9.17;;;1.50;8.70;;;;;;5010561;28;20180;-82
2023/01/20 11:51:54;;;;;;;13.23;10.03;;;1.60;18.10;;;;;;5010628;28;20180;-83
2023/01/20 11:54:25;;;;;;;13.10;9.97;;;1.60;5.10;;;;;;5009847;28;20187;-83
2023/01/20 11:56:58;;;;;;;13.60;9.10;;;1.60;1.00;;;;;;5024547;28;20210;-79
2023/01/20 11:59:29;;;;;;;11.73;8.50;;;1.50;1.00;;;;;;5008695;28;20187;-79
2023/01/20 12:02:01;;;;;;;12.53;9.33;;;1.60;1.00;;;;;;5009282;28;20274;-83
2023/01/20 12:05:14;;;;;;;15.63;9.17;;;1.60;1.00;;;;;;5006814;28;20688;-79
2023/01/20 12:07:46;;;;;;;14.30;8.43;;;1.70;1.00;;;;;;5007764;28;20305;-80
2023/01/20 12:10:35;;;;;;;11.07;8.03;;;1.60;1.00;;;;;;5010147;28;20462;-82
2023/01/20 12:13:10;;;;;;;12.73;7.90;;;1.60;1.00;;;;;;5008396;28;20176;-79
2023/01/20 12:15:41;;;;;;;11.73;8.77;;;1.60;1.00;;;;;;5011329;28;20830;-81
2023/01/20 12:18:32;;;;;;;12.60;8.40;;;1.60;1.00;;;;;;5009841;28;20187;-81
2023/01/20 12:21:06;;;;;;;11.70;7.70;;;1.50;1.00;;;;;;5012593;28;20180;-82
2023/01/20 12:24:03;;;;;;;11.53;8.23;;;1.40;1.00;;;;;;5008368;28;20195;-82
2023/01/20 12:26:30;;;;;;;12.80;9.00;;;1.40;1.00;;;;;;5010617;28;20214;-82
2023/01/20 12:29:23;;;;;;;14.37;9.03;;;1.30;1.00;;;;;;5012116;28;20190;-79
2023/01/20 12:31:49;;;;;;;11.93;8.70;;;1.30;1.00;;;;;;5013563;28;20260;-81
2023/01/20 12:34:26;;;;;;;15.10;8.93;;;1.20;1.00;;;;;;5013365;28;20184;-80
2023/01/20 12:37:22;;;;;;;12.60;8.83;;;1.20;1.00;;;;;;5010932;28;20207;-78
2023/01/20 12:40:03;;;;;;;14.13;9.00;;;1.20;1.00;;;;;;5015249;28;20198;-81
2023/01/20 12:42:49;;;;;;;11.23;7.97;;;1.30;1.00;;;;;;5028958;28;20203;-78
2023/01/20 12:45:32;;;;;;;10.57;8.10;;;1.40;1.00;;;;;;5009192;28;20215;-79
2023/01/20 12:48:16;;;;;;;11.30;7.77;;;2.50;1.00;;;;;;5013212;28;20283;-79
2023/01/20 12:51:01;;;;;;;10.77;8.13;;;1.40;1.00;;;;;;5015244;28;20176;-80
2023/01/20 12:53:40;;;;;;;12.70;8.27;;;1.30;1.00;;;;;;5030642;28;20184;-84
2023/01/20 12:56:35;;;;;;;13.53;8.37;;;1.20;1.00;;;;;;5011277;28;20215;-79
2023/01/20 12:59:37;;;;;;;13.07;8.80;;;1.20;1.00;;;;;;5026660;28;20184;-81
2023/01/20 13:02:36;;;;;;;15.50;9.20;;;1.30;1.00;;;;;;5012145;28;20179;-79
2023/01/20 13:05:07;;;;;;;14.33;8.30;;;1.30;1.00;;;;;;5011719;28;20195;-78
2023/01/20 13:07:42;;;;;;;14.40;8.63;;;1.40;1.00;;;;;;5011393;28;20211;-79
2023/01/20 13:10:52;;;;;;;12.73;9.20;;;1.40;1.00;;;;;;5012134;28;20619;-80
2023/01/20 13:13:39;;;;;;;14.40;9.03;;;1.40;1.00;;;;;;5010360;28;20187;-81
2023/01/20 13:16:31;;;;;;;12.33;8.63;;;1.40;1.00;;;;;;5009791;28;20195;-80
2023/01/20 13:19:23;;;;;;;12.60;8.57;;;1.40;1.00;;;;;;5007918;28;20247;-82
2023/01/20 13:21:53;;;;;;;14.13;8.67;;;1.40;1.00;;;;;;5015337;28;20198;-80
2023/01/20 13:24:27;;;;;;;12.93;9.67;;;1.40;1.00;;;;;;5010622;28;20222;-80
2023/01/20 13:26:56;;;;;;;12.00;8.37;;;1.40;1.00;;;;;;5011543;28;20203;-81
2023/01/20 13:29:36;;;;;;;26.17;22.53;;;1.40;1.00;;;;;;5014062;28;20171;-80
2023/01/20 13:32:15;;;;;;;15.43;9.43;;;1.50;1.00;;;;;;5026991;28;20180;-78